Time;durP1;ratioP1;P1;durP2;ratioP2;P2;SDS_P1;SDS_P2;PMS_P1;PMS_P2;Temp;Humidity;BMP_temperature;BMP_pressure;BME280_temperature;BME280_humidity;BME280_pressure;Samples;Min_cycle;Max_cycle;Signal;HPM_P1;HPM_P2
2024/03/11 00:00:51;;;;;;;19.60;15.50;;;;;;;10.80;100.00;98811.65;181401;1235;46184;-81
2024/03/11 00:05:15;;;;;;;16.70;13.90;;;;;;;10.86;100.00;98814.59;182220;1233;46079;-81
2024/03/11 00:09:20;;;;;;;16.90;12.90;;;;;;;10.83;100.00;98807.80;181943;1234;45970;-81
2024/03/11 00:13:22;;;;;;;19.30;13.40;;;;;;;10.86;100.00;98805.25;182041;1234;46090;-81
2024/03/11 00:17:24;;;;;;;19.80;13.90;;;;;;;10.89;100.00;98799.39;181511;1237;57771;-81
2024/03/11 00:21:25;;;;;;;17.40;12.40;;;;;;;10.96;100.00;98794.88;181567;1237;46208;-80
2024/03/11 00:25:27;;;;;;;23.10;12.80;;;;;;;11.03;100.00;98792.76;181575;1234;46078;-80
2024/03/11 00:29:30;;;;;;;12.90;10.30;;;;;;;11.08;100.00;98786.70;181850;1237;46041;-81
2024/03/11 00:33:32;;;;;;;20.30;11.50;;;;;;;11.16;100.00;98785.17;182850;1234;45893;-81
2024/03/11 00:37:34;;;;;;;16.10;12.00;;;;;;;11.19;100.00;98779.67;182327;1233;60094;-81
2024/03/11 00:41:37;;;;;;;16.40;9.70;;;;;;;11.22;100.00;98777.55;183019;1235;46059;-81
2024/03/11 00:45:39;;;;;;;24.40;12.90;;;;;;;11.26;100.00;98771.98;181317;1235;46112;-81
2024/03/11 00:49:41;;;;;;;18.80;14.40;;;;;;;11.30;100.00;98772.98;182062;1238;45979;-80
2024/03/11 00:53:43;;;;;;;18.30;11.60;;;;;;;11.29;100.00;98770.30;181528;1235;46093;-80
2024/03/11 00:57:45;;;;;;;14.70;12.20;;;;;;;11.29;100.00;98775.23;181187;1235;59323;-80
2024/03/11 01:01:47;;;;;;;19.40;13.60;;;;;;;11.32;100.00;98774.45;181873;1233;45953;-80
2024/03/11 01:05:49;;;;;;;18.90;13.10;;;;;;;11.30;100.00;98770.02;181870;1236;45989;-81
2024/03/11 01:09:52;;;;;;;19.60;12.60;;;;;;;11.33;100.00;98767.76;182620;1234;46051;-80
2024/03/11 01:13:53;;;;;;;21.80;13.70;;;;;;;11.33;100.00;98770.59;182021;1233;45950;-81
2024/03/11 01:17:55;;;;;;;19.20;11.60;;;;;;;11.37;100.00;98771.21;181246;1237;57928;-80
2024/03/11 01:21:59;;;;;;;16.40;12.40;;;;;;;11.37;100.00;98764.77;182422;1235;46183;-81
2024/03/11 01:26:01;;;;;;;20.90;12.10;;;;;;;11.36;100.00;98761.94;182525;1237;46052;-81
2024/03/11 01:30:03;;;;;;;21.00;13.40;;;;;;;11.36;100.00;98763.86;182879;1234;45972;-80
2024/03/11 01:34:05;;;;;;;17.80;13.90;;;;;;;11.37;100.00;98765.32;181962;1238;45980;-80
2024/03/11 01:38:12;;;;;;;15.10;11.50;;;;;;;11.38;100.00;98762.05;183351;1234;59348;-80
2024/03/11 01:42:16;;;;;;;15.00;12.20;;;;;;;11.35;100.00;98756.14;182240;1234;46094;-81
2024/03/11 01:46:19;;;;;;;19.30;13.90;;;;;;;11.35;100.00;98750.65;181964;1235;45971;-80
2024/03/11 01:50:21;;;;;;;18.80;13.80;;;;;;;11.32;100.00;98750.09;181906;1237;46072;-80
2024/03/11 01:54:25;;;;;;;19.80;13.90;;;;;;;11.27;100.00;98754.82;181472;1234;46021;-80
2024/03/11 01:58:29;;;;;;;28.50;13.10;;;;;;;11.28;100.00;98749.43;182045;1234;57885;-80
2024/03/11 02:02:30;;;;;;;17.60;12.10;;;;;;;11.23;100.00;98751.40;182312;1238;46613;-80
2024/03/11 02:06:33;;;;;;;22.20;15.50;;;;;;;11.22;100.00;98740.16;182021;1237;46047;-80
2024/03/11 02:10:36;;;;;;;16.90;13.10;;;;;;;11.14;100.00;98741.52;181255;1236;46099;-80
2024/03/11 02:14:38;;;;;;;22.80;15.80;;;;;;;11.11;100.00;98732.65;181897;1238;46107;-80
2024/03/11 02:18:39;;;;;;;21.60;15.60;;;;;;;11.00;100.00;98727.99;181595;1237;59814;-80
2024/03/11 02:22:48;;;;;;;21.40;14.40;;;;;;;10.91;100.00;98726.11;181743;1235;46075;-80
2024/03/11 02:26:49;;;;;;;26.00;18.10;;;;;;;10.83;100.00;98723.20;182148;1238;46026;-80
2024/03/11 02:30:51;;;;;;;19.80;15.00;;;;;;;10.80;100.00;98724.50;182052;1235;46200;-80
2024/03/11 02:34:53;;;;;;;19.40;13.90;;;;;;;10.74;100.00;98725.49;181534;1239;45970;-80
2024/03/11 02:38:54;;;;;;;21.60;16.20;;;;;;;10.69;100.00;98725.23;181404;1235;59817;-80
2024/03/11 02:42:56;;;;;;;18.80;14.90;;;;;;;10.66;100.00;98723.56;182167;1238;46216;-80
2024/03/11 02:46:58;;;;;;;21.60;16.10;;;;;;;10.63;100.00;98733.70;182912;1234;45967;-80
2024/03/11 02:51:00;;;;;;;21.40;15.10;;;;;;;10.63;100.00;98736.20;181793;1238;46042;-80
2024/03/11 02:55:02;;;;;;;22.50;14.40;;;;;;;10.59;100.00;98737.80;181562;1236;46087;-80
2024/03/11 02:59:04;;;;;;;18.60;14.20;;;;;;;10.55;100.00;98747.28;181651;1235;57811;-81
2024/03/11 03:03:06;;;;;;;21.00;14.50;;;;;;;10.54;100.00;98751.23;181940;1234;46080;-80
2024/03/11 03:07:12;;;;;;;23.60;16.10;;;;;;;10.50;100.00;98754.98;181303;1235;46026;-81
2024/03/11 03:11:14;;;;;;;29.60;19.10;;;;;;;10.49;100.00;98754.67;182222;1234;44019;-80
2024/03/11 03:15:17;;;;;;;23.30;15.70;;;;;;;10.49;100.00;98759.80;181891;1238;46141;-81
2024/03/11 03:19:18;;;;;;;20.70;16.20;;;;;;;10.52;100.00;98761.09;181813;1235;59202;-81
2024/03/11 03:23:21;;;;;;;28.40;18.00;;;;;;;10.51;100.00;98762.57;181772;1234;46035;-80
2024/03/11 03:27:22;;;;;;;29.30;20.00;;;;;;;10.50;100.00;98758.30;182365;1234;46076;-80
2024/03/11 03:31:27;;;;;;;23.00;16.10;;;;;;;10.52;100.00;98761.97;181610;1235;45988;-80
2024/03/11 03:35:28;;;;;;;25.00;18.80;;;;;;;10.48;100.00;98760.98;181626;1235;45956;-80
2024/03/11 03:39:30;;;;;;;24.70;18.00;;;;;;;10.49;100.00;98761.26;182036;1237;59150;-80
2024/03/11 03:43:32;;;;;;;28.60;20.00;;;;;;;10.43;100.00;98760.59;182423;1234;46066;-80
2024/03/11 03:47:35;;;;;;;27.40;19.80;;;;;;;10.43;100.00;98764.84;181867;1235;46260;-80
2024/03/11 03:51:36;;;;;;;25.10;18.60;;;;;;;10.43;100.00;98764.84;181695;1235;46158;-80
2024/03/11 03:55:39;;;;;;;30.70;21.40;;;;;;;10.42;100.00;98765.27;181793;1235;45958;-80
2024/03/11 03:59:41;;;;;;;28.30;20.50;;;;;;;10.39;100.00;98767.89;182271;1236;58224;-81
2024/03/11 04:03:42;;;;;;;24.00;19.40;;;;;;;10.36;100.00;98770.63;181755;1237;46149;-80
2024/03/11 04:07:45;;;;;;;25.80;20.30;;;;;;;10.36;100.00;98776.58;182016;1237;46178;-80
2024/03/11 04:11:46;;;;;;;29.80;19.30;;;;;;;10.35;100.00;98774.15;182044;1235;45998;-80
2024/03/11 04:15:48;;;;;;;26.60;19.80;;;;;;;10.33;100.00;98774.17;181923;1237;46082;-81
2024/03/11 04:19:50;;;;;;;21.40;18.00;;;;;;;10.31;100.00;98782.74;181371;1237;58172;-81
2024/03/11 04:23:52;;;;;;;28.40;20.90;;;;;;;10.24;100.00;98785.98;181928;1235;45932;-81
2024/03/11 04:27:55;;;;;;;30.40;19.80;;;;;;;10.23;100.00;98782.87;181800;1234;46103;-82
2024/03/11 04:31:57;;;;;;;29.10;19.50;;;;;;;10.16;100.00;98781.48;182553;1234;45973;-83
2024/03/11 04:35:59;;;;;;;31.70;22.90;;;;;;;10.14;100.00;98781.09;181753;1235;46277;-83
2024/03/11 04:40:01;;;;;;;26.80;21.60;;;;;;;10.13;100.00;98774.24;181566;1237;57996;-83
2024/03/11 04:44:03;;;;;;;28.80;21.10;;;;;;;10.10;100.00;98770.84;181311;1238;46086;-83
2024/03/11 04:48:07;;;;;;;30.80;20.70;;;;;;;10.07;100.00;98774.02;181577;1235;45957;-83
2024/03/11 04:52:09;;;;;;;28.80;22.90;;;;;;;10.10;100.00;98778.84;181559;1237;45974;-83
2024/03/11 04:56:11;;;;;;;24.10;18.40;;;;;;;10.14;100.00;98782.02;182364;1235;46087;-83
2024/03/11 05:00:13;;;;;;;27.80;19.80;;;;;;;10.12;100.00;98785.59;182199;1234;57973;-83
2024/03/11 05:04:15;;;;;;;25.90;17.90;;;;;;;10.18;100.00;98795.81;182081;1235;46090;-84
2024/03/11 05:08:19;;;;;;;37.60;23.60;;;;;;;10.16;100.00;98794.69;182120;1237;45925;-85
2024/03/11 05:12:21;;;;;;;27.50;18.80;;;;;;;10.22;100.00;98797.67;182143;1234;45947;-85
2024/03/11 05:16:23;;;;;;;27.90;20.70;;;;;;;10.22;100.00;98798.73;182115;1235;45954;-84
2024/03/11 05:20:25;;;;;;;30.10;16.90;;;;;;;10.24;100.00;98810.92;181131;1237;59712;-83
2024/03/11 05:24:27;;;;;;;24.30;18.10;;;;;;;10.28;100.00;98812.80;181450;1235;46152;-84
2024/03/11 05:28:29;;;;;;;17.70;15.50;;;;;;;10.26;100.00;98811.80;182252;1235;46396;-85
2024/03/11 05:32:32;;;;;;;19.10;15.60;;;;;;;10.21;100.00;98812.98;182382;1235;44219;-87
2024/03/11 05:36:34;;;;;;;21.00;16.30;;;;;;;10.25;100.00;98807.66;182378;1235;45960;-86
2024/03/11 05:40:36;;;;;;;25.10;18.10;;;;;;;10.30;100.00;98810.35;182128;1234;59770;-85
2024/03/11 05:44:38;;;;;;;21.10;15.40;;;;;;;10.32;100.00;98821.29;182298;1237;46085;-85
2024/03/11 05:48:39;;;;;;;22.90;15.30;;;;;;;10.37;100.00;98824.98;183098;1235;46013;-85
2024/03/11 05:52:44;;;;;;;24.10;16.10;;;;;;;10.42;100.00;98836.71;183436;1236;46053;-85
2024/03/11 05:57:00;;;;;;;24.30;17.90;;;;;;;10.46;100.00;98845.19;182474;1235;46073;-84
2024/03/11 06:01:02;;;;;;;23.70;16.00;;;;;;;10.49;100.00;98848.91;182793;1234;59292;-85
2024/03/11 06:05:05;;;;;;;19.80;16.50;;;;;;;10.53;100.00;98849.10;182288;1234;46061;-86
2024/03/11 06:09:09;;;;;;;20.60;15.20;;;;;;;10.55;100.00;98857.05;182256;1234;46065;-85
2024/03/11 06:13:11;;;;;;;20.30;16.40;;;;;;;10.58;100.00;98864.91;182235;1235;45942;-85
2024/03/11 06:17:15;;;;;;;23.40;16.00;;;;;;;10.62;100.00;98873.50;182124;1235;46094;-85
2024/03/11 06:21:17;;;;;;;19.90;15.60;;;;;;;10.65;100.00;98876.20;182167;1235;58155;-85
2024/03/11 06:25:20;;;;;;;23.30;14.80;;;;;;;10.67;100.00;98878.06;182276;1238;46140;-85
2024/03/11 06:29:22;;;;;;;20.70;16.20;;;;;;;10.69;100.00;98884.30;184799;1234;45482;-85
2024/03/11 06:33:25;;;;;;;23.70;15.90;;;;;;;10.78;100.00;98894.73;184119;1237;46013;-85
2024/03/11 06:37:27;;;;;;;20.20;15.10;;;;;;;10.83;100.00;98897.77;182460;1235;46596;-85
2024/03/11 06:41:29;;;;;;;23.00;15.40;;;;;;;10.94;100.00;98906.11;182064;1238;58269;-85
2024/03/11 06:45:33;;;;;;;20.10;15.60;;;;;;;11.01;100.00;98911.33;182150;1238;46020;-86
2024/03/11 06:49:36;;;;;;;22.90;14.10;;;;;;;11.04;100.00;98909.64;182178;1236;46098;-85
2024/03/11 06:53:39;;;;;;;21.80;16.50;;;;;;;11.02;100.00;98913.81;182253;1235;45969;-85
2024/03/11 06:57:42;;;;;;;19.20;15.50;;;;;;;11.04;100.00;98919.17;182089;1235;46096;-85
2024/03/11 07:01:44;;;;;;;21.10;15.80;;;;;;;11.07;100.00;98927.49;182087;1235;57954;-85
2024/03/11 07:05:46;;;;;;;19.50;15.90;;;;;;;11.10;100.00;98929.67;182455;1238;46363;-85
2024/03/11 07:09:48;;;;;;;20.70;16.60;;;;;;;11.15;100.00;98926.11;181937;1236;45944;-85
2024/03/11 07:13:51;;;;;;;20.50;15.20;;;;;;;11.20;100.00;98932.71;182163;1235;46224;-85
2024/03/11 07:17:52;;;;;;;19.00;14.60;;;;;;;11.25;100.00;98935.59;182472;1234;45929;-85
2024/03/11 07:21:54;;;;;;;27.30;15.90;;;;;;;11.28;100.00;98935.73;182273;1235;58039;-85
2024/03/11 07:25:59;;;;;;;23.60;17.50;;;;;;;11.35;100.00;98938.23;182426;1234;45979;-85
2024/03/11 07:30:01;;;;;;;17.70;14.50;;;;;;;11.42;100.00;98935.48;182628;1238;46081;-85
2024/03/11 07:34:04;;;;;;;25.90;19.00;;;;;;;11.48;100.00;98938.45;182606;1236;46115;-85
2024/03/11 07:38:06;;;;;;;25.80;14.90;;;;;;;11.63;100.00;98942.55;182448;1235;44441;-85
2024/03/11 07:42:09;;;;;;;23.30;16.40;;;;;;;11.71;100.00;98947.16;182274;1234;57905;-85
2024/03/11 07:46:11;;;;;;;29.40;16.50;;;;;;;11.82;100.00;98950.76;182319;1237;46181;-85
2024/03/11 07:50:15;;;;;;;27.00;17.00;;;;;;;11.96;100.00;98955.55;182025;1235;46091;-85
2024/03/11 07:54:16;;;;;;;23.50;15.80;;;;;;;12.09;100.00;98956.34;181841;1235;45973;-84
2024/03/11 07:58:19;;;;;;;19.60;15.50;;;;;;;12.11;100.00;98959.79;182352;1236;46173;-85
2024/03/11 08:02:21;;;;;;;23.30;16.20;;;;;;;12.15;100.00;98962.35;182152;1235;57372;-85
2024/03/11 08:06:24;;;;;;;31.70;26.60;;;;;;;12.24;100.00;98969.20;182135;1234;46007;-85
2024/03/11 08:10:26;;;;;;;70.60;48.60;;;;;;;12.30;100.00;98974.46;182205;1235;46096;-85
2024/03/11 08:14:28;;;;;;;50.00;33.80;;;;;;;12.38;100.00;98978.14;182459;1235;45963;-85
2024/03/11 08:18:30;;;;;;;33.30;24.70;;;;;;;12.50;100.00;98981.89;182286;1234;46059;-85
2024/03/11 08:22:31;;;;;;;31.60;25.30;;;;;;;12.61;100.00;98986.91;182472;1235;59465;-85
2024/03/11 08:26:34;;;;;;;36.20;25.30;;;;;;;12.72;100.00;98989.27;181977;1235;46208;-85
2024/03/11 08:30:36;;;;;;;24.60;19.80;;;;;;;12.78;100.00;98994.21;182327;1234;46094;-85
2024/03/11 08:34:38;;;;;;;23.90;19.10;;;;;;;12.83;100.00;98994.40;182866;1234;45947;-84
2024/03/11 08:38:40;;;;;;;29.50;21.40;;;;;;;12.86;100.00;99001.49;182364;1235;44413;-85
2024/03/11 08:42:51;;;;;;;34.80;28.30;;;;;;;12.92;100.00;98997.90;182133;1234;58542;-85
2024/03/11 08:46:53;;;;;;;27.70;23.60;;;;;;;13.01;100.00;99001.06;182278;1233;45827;-85
2024/03/11 08:50:55;;;;;;;25.70;20.80;;;;;;;13.17;100.00;99009.17;182619;1233;46218;-85
2024/03/11 08:54:57;;;;;;;22.60;18.60;;;;;;;13.35;100.00;99009.82;182560;1237;46186;-85
2024/03/11 08:59:00;;;;;;;22.70;15.00;;;;;;;13.44;100.00;99014.11;182289;1234;44557;-85
2024/03/11 09:03:04;;;;;;;19.00;16.30;;;;;;;13.31;100.00;99013.61;182149;1234;59458;-85
2024/03/11 09:07:06;;;;;;;25.10;16.90;;;;;;;13.34;100.00;99013.23;182289;1238;45988;-85
2024/03/11 09:11:08;;;;;;;27.50;14.70;;;;;;;13.51;100.00;99024.92;182295;1237;46068;-85
2024/03/11 09:15:16;;;;;;;16.70;13.60;;;;;;;13.63;100.00;99028.52;182298;1233;46501;-85
2024/03/11 09:19:23;;;;;;;20.30;15.90;;;;;;;13.50;100.00;99027.86;182121;1237;45963;-85
2024/03/11 09:23:25;;;;;;;27.50;17.80;;;;;;;13.56;100.00;99038.45;182402;1235;59293;-85
2024/03/11 09:27:27;;;;;;;23.00;18.30;;;;;;;13.78;100.00;99042.33;182526;1235;46504;-85
2024/03/11 09:31:29;;;;;;;26.20;17.80;;;;;;;14.08;100.00;99046.05;182611;1237;46590;-84
2024/03/11 09:35:31;;;;;;;24.10;19.70;;;;;;;14.33;100.00;99052.60;182258;1237;46225;-85
2024/03/11 09:39:34;;;;;;;21.30;16.40;;;;;;;14.59;100.00;99058.25;183053;1237;46174;-85
2024/03/11 09:43:38;;;;;;;27.70;18.70;;;;;;;14.96;100.00;99055.57;182453;1237;59289;-85
2024/03/11 09:47:41;;;;;;;22.10;17.20;;;;;;;15.31;100.00;99050.48;182119;1233;46090;-85
2024/03/11 09:51:45;;;;;;;18.40;13.80;;;;;;;15.76;100.00;99057.32;182214;1237;46041;-85
2024/03/11 09:55:47;;;;;;;25.30;16.40;;;;;;;15.89;98.07;99059.54;182369;1233;46391;-85
2024/03/11 09:59:49;;;;;;;17.30;14.50;;;;;;;16.04;95.40;99060.92;182339;1235;46113;-85
2024/03/11 10:03:52;;;;;;;28.50;18.40;;;;;;;16.16;96.15;99059.84;182601;1235;57357;-85
2024/03/11 10:07:57;;;;;;;23.30;15.10;;;;;;;16.41;92.83;99058.31;182387;1237;46015;-85
2024/03/11 10:12:08;;;;;;;17.10;13.00;;;;;;;16.68;90.05;99064.76;182325;1234;46058;-85
2024/03/11 10:16:18;;;;;;;18.00;13.10;;;;;;;16.90;85.74;99066.44;182309;1234;46059;-85
2024/03/11 10:20:21;;;;;;;15.90;11.90;;;;;;;17.22;84.03;99069.23;182527;1233;46114;-85
2024/03/11 10:24:30;;;;;;;17.30;13.70;;;;;;;17.49;83.07;99070.40;182168;1233;58633;-85
2024/03/11 10:28:32;;;;;;;11.80;10.50;;;;;;;17.67;79.61;99068.19;182175;1234;46157;-85
2024/03/11 10:32:42;;;;;;;13.90;12.40;;;;;;;17.76;78.46;99068.87;182198;1233;45960;-85
2024/03/11 10:36:44;;;;;;;15.10;12.40;;;;;;;17.90;77.05;99072.80;182360;1238;46162;-84
2024/03/11 10:40:50;;;;;;;13.30;10.00;;;;;;;17.90;77.99;99068.89;182351;1238;46068;-84
2024/03/11 10:44:54;;;;;;;13.20;11.30;;;;;;;17.91;78.50;99068.90;182599;1233;58300;-85
2024/03/11 10:48:56;;;;;;;14.30;10.50;;;;;;;17.95;78.25;99072.72;182301;1235;46181;-85
2024/03/11 10:53:06;;;;;;;12.60;10.50;;;;;;;17.96;77.57;99073.45;182213;1235;46219;-85
2024/03/11 10:57:24;;;;;;;12.60;10.50;;;;;;;17.98;77.14;99069.33;182283;1234;45999;-85
2024/03/11 11:01:33;;;;;;;14.20;10.20;;;;;;;17.93;76.87;99072.02;182149;1235;46031;-85
2024/03/11 11:05:43;;;;;;;15.20;11.20;;;;;;;17.56;78.00;99071.13;182252;1234;58180;-85
2024/03/11 11:09:49;;;;;;;23.00;13.10;;;;;;;17.36;81.25;99078.23;182084;1235;46073;-85
2024/03/11 11:13:55;;;;;;;17.50;12.70;;;;;;;17.04;85.15;99087.45;182258;1234;46597;-85
2024/03/11 11:17:57;;;;;;;16.50;13.90;;;;;;;16.81;85.20;99091.20;182212;1234;46107;-85
2024/03/11 11:22:07;;;;;;;18.90;13.70;;;;;;;16.68;86.94;99091.27;182094;1234;46028;-85
2024/03/11 11:26:10;;;;;;;15.10;11.90;;;;;;;16.55;87.30;99090.10;182430;1238;56870;-85
2024/03/11 11:30:14;;;;;;;19.60;15.00;;;;;;;16.41;85.73;99090.28;181904;1234;372965;-85
2024/03/11 11:34:19;;;;;;;20.10;15.70;;;;;;;16.40;87.26;99086.52;182011;1234;46029;-84
2024/03/11 11:38:24;;;;;;;16.50;12.90;;;;;;;16.43;87.25;99088.80;182013;1234;46413;-85
2024/03/11 11:42:37;;;;;;;28.90;17.30;;;;;;;16.47;86.45;99091.20;182222;1238;46192;-85
2024/03/11 11:46:46;;;;;;;25.70;16.00;;;;;;;16.55;86.73;99094.30;182288;1236;57885;-85
2024/03/11 11:50:50;;;;;;;22.90;16.70;;;;;;;16.72;85.85;99097.95;182295;1233;46065;-85
2024/03/11 11:54:53;;;;;;;22.70;17.40;;;;;;;16.82;84.49;99091.83;182849;1236;45967;-85
2024/03/11 11:59:04;;;;;;;18.80;14.00;;;;;;;16.93;83.78;99087.23;182211;1233;46072;-84
2024/03/11 12:03:31;;;;;;;23.70;15.70;;;;;;;16.81;83.49;99081.04;182445;1233;46029;-85
2024/03/11 12:07:40;;;;;;;16.00;14.00;;;;;;;16.80;85.29;99084.74;182299;1238;59232;-85
2024/03/11 12:11:48;;;;;;;21.00;17.40;;;;;;;16.85;84.40;99095.97;182254;1234;45783;-85
2024/03/11 12:15:51;;;;;;;20.90;15.80;;;;;;;17.00;83.32;99094.79;182066;1238;45763;-85
2024/03/11 12:20:30;;;;;;;19.60;15.40;;;;;;;17.08;83.08;99105.58;182617;1234;45988;-84
2024/03/11 12:24:34;;;;;;;17.50;13.70;;;;;;;17.19;81.03;99105.23;182535;1237;46005;-84
2024/03/11 12:28:37;;;;;;;18.20;15.30;;;;;;;17.24;78.90;99110.63;182371;1233;57911;-84
2024/03/11 12:32:40;;;;;;;17.70;14.80;;;;;;;17.29;79.94;99114.34;182387;1234;44141;-84
2024/03/11 12:36:48;;;;;;;27.10;16.40;;;;;;;17.26;81.75;99118.91;182300;1237;46003;-84
2024/03/11 12:40:52;;;;;;;23.40;16.40;;;;;;;17.27;81.42;99119.33;182256;1234;44794;-84
2024/03/11 12:44:55;;;;;;;21.40;15.40;;;;;;;17.39;81.36;99125.14;182205;1235;46179;-84
2024/03/11 12:48:57;;;;;;;19.30;17.20;;;;;;;17.37;81.55;99128.44;182405;1234;59220;-84
2024/03/11 12:53:02;;;;;;;19.50;17.10;;;;;;;17.30;82.00;99134.34;182174;1234;46147;-84
2024/03/11 12:57:11;;;;;;;22.20;17.10;;;;;;;17.28;81.03;99134.58;182204;1238;46077;-84
2024/03/11 13:01:13;;;;;;;18.20;16.20;;;;;;;17.50;80.82;99142.36;182357;1234;46075;-84
2024/03/11 13:05:18;;;;;;;21.80;16.70;;;;;;;17.64;81.02;99142.47;182356;1238;46093;-84
2024/03/11 13:09:24;;;;;;;18.10;15.10;;;;;;;17.68;79.10;99143.42;182973;1233;56845;-84
2024/03/11 13:13:26;;;;;;;;;;;;;;;17.51;77.80;99142.90;182142;1238;45958;-84
2024/03/11 13:17:32;;;;;;;22.90;17.30;;;;;;;17.40;80.30;99148.30;182015;1233;45831;-84
2024/03/11 13:21:34;;;;;;;23.30;17.60;;;;;;;17.29;80.17;99153.79;182173;1238;45961;-84
2024/03/11 13:25:36;;;;;;;22.10;16.90;;;;;;;17.19;80.47;99152.73;182140;1238;46075;-84
2024/03/11 13:29:39;;;;;;;22.20;18.20;;;;;;;17.09;81.34;99152.58;182022;1236;58041;-84
2024/03/11 13:33:41;;;;;;;23.30;18.90;;;;;;;17.17;82.14;99151.35;182112;1234;45948;-85
2024/03/11 13:37:44;;;;;;;21.90;18.60;;;;;;;17.26;79.73;99154.75;182471;1234;46164;-85
2024/03/11 13:41:48;;;;;;;18.70;16.40;;;;;;;17.19;78.01;99157.48;182375;1234;45964;-85
2024/03/11 13:45:51;;;;;;;23.20;18.70;;;;;;;17.22;78.09;99157.20;182033;1234;46048;-85
2024/03/11 13:49:53;;;;;;;22.00;16.80;;;;;;;17.23;79.15;99159.36;182058;1234;59925;-85
2024/03/11 13:53:55;;;;;;;23.20;18.80;;;;;;;17.39;80.32;99158.63;182018;1233;46039;-84
2024/03/11 13:57:57;;;;;;;22.80;18.50;;;;;;;17.48;78.24;99157.58;182357;1234;46037;-85
2024/03/11 14:02:00;;;;;;;23.80;17.80;;;;;;;17.59;80.60;99160.59;182486;1234;46643;-84
2024/03/11 14:06:02;;;;;;;24.10;17.90;;;;;;;17.57;76.48;99160.22;182134;1234;45961;-84
2024/03/11 14:10:06;;;;;;;24.50;18.90;;;;;;;17.63;77.98;99161.98;182085;1233;59524;-84
2024/03/11 14:14:09;;;;;;;21.70;17.70;;;;;;;17.68;76.17;99162.08;182097;1234;46097;-84
2024/03/11 14:18:11;;;;;;;20.00;17.00;;;;;;;17.67;74.20;99158.58;182801;1237;46057;-85
2024/03/11 14:22:14;;;;;;;18.40;16.50;;;;;;;17.58;73.84;99158.36;182101;1238;45974;-84
2024/03/11 14:26:16;;;;;;;18.70;16.00;;;;;;;17.60;75.09;99165.11;182762;1234;45970;-83
2024/03/11 14:30:24;;;;;;;21.70;17.20;;;;;;;17.73;75.68;99167.83;182563;1234;58133;-84
2024/03/11 14:34:26;;;;;;;20.00;17.00;;;;;;;17.81;73.99;99171.86;183422;1234;46056;-85
2024/03/11 14:38:29;;;;;;;22.00;17.20;;;;;;;17.86;73.94;99167.75;182794;1234;46185;-85
2024/03/11 14:42:31;;;;;;;21.10;16.40;;;;;;;17.89;73.96;99169.59;182762;1238;46117;-84
2024/03/11 14:46:33;;;;;;;17.40;15.30;;;;;;;17.79;73.30;99171.00;182850;1237;46180;-84
2024/03/11 14:50:46;;;;;;;21.30;16.90;;;;;;;17.73;73.47;99167.11;183401;1237;59300;-85
2024/03/11 14:54:49;;;;;;;18.70;16.70;;;;;;;17.73;73.64;99171.09;183801;1233;46072;-84
2024/03/11 14:58:51;;;;;;;22.90;17.50;;;;;;;17.71;73.46;99172.21;183630;1234;45977;-85
2024/03/11 15:02:53;;;;;;;21.10;18.30;;;;;;;17.66;73.90;99173.38;182635;1238;46178;-85
2024/03/11 15:06:55;;;;;;;28.80;23.60;;;;;;;17.58;73.50;99174.12;182674;1238;46007;-84
2024/03/11 15:11:02;;;;;;;26.90;16.40;;;;;;;17.50;71.91;99174.73;182958;1237;59224;-85
2024/03/11 15:15:06;;;;;;;25.20;16.90;;;;;;;17.45;73.31;99171.80;183050;1238;46148;-84
2024/03/11 15:19:08;;;;;;;19.70;16.20;;;;;;;17.44;74.85;99177.31;183167;1234;45982;-85
2024/03/11 15:23:13;;;;;;;18.90;16.10;;;;;;;17.45;75.31;99182.20;183450;1233;45029;-84
2024/03/11 15:27:15;;;;;;;28.60;18.60;;;;;;;17.43;78.56;99186.61;183317;1233;45079;-83
2024/03/11 15:31:19;;;;;;;20.30;17.90;;;;;;;17.39;82.01;99196.46;182676;1234;57631;-83
2024/03/11 15:35:26;;;;;;;22.30;17.30;;;;;;;17.17;81.69;99201.37;183481;1234;44873;-83
2024/03/11 15:39:32;;;;;;;23.70;20.00;;;;;;;16.92;82.42;99204.39;183148;1233;45987;-83
2024/03/11 15:43:34;;;;;;;22.00;18.40;;;;;;;16.68;81.80;99203.63;183839;1237;46187;-83
2024/03/11 15:47:41;;;;;;;25.70;20.00;;;;;;;16.48;83.02;99202.69;183475;1234;46046;-83
2024/03/11 15:51:43;;;;;;;28.00;20.10;;;;;;;16.30;86.46;99202.63;183123;1234;58148;-83
2024/03/11 15:55:46;;;;;;;22.70;18.00;;;;;;;16.06;87.71;99208.58;183177;1234;43873;-83
2024/03/11 15:59:49;;;;;;;25.30;19.20;;;;;;;15.83;88.41;99216.33;182491;1234;46081;-84
2024/03/11 16:03:51;;;;;;;29.80;21.20;;;;;;;15.60;89.55;99224.19;183485;1233;44579;-84
2024/03/11 16:07:53;;;;;;;30.10;22.10;;;;;;;15.41;91.50;99228.61;182660;1237;46088;-83
2024/03/11 16:11:56;;;;;;;29.90;20.50;;;;;;;15.23;92.88;99233.58;182734;1238;59777;-83
2024/03/11 16:15:58;;;;;;;29.20;21.40;;;;;;;15.07;93.64;99234.59;182982;1233;46073;-82
2024/03/11 16:20:00;;;;;;;29.70;20.30;;;;;;;14.92;94.62;99242.90;182660;1234;46101;-82
2024/03/11 16:24:03;;;;;;;28.40;22.00;;;;;;;14.75;95.20;99242.34;182340;1234;45979;-82
2024/03/11 16:28:07;;;;;;;26.30;21.20;;;;;;;14.63;95.97;99248.96;182845;1233;44351;-82
2024/03/11 16:32:09;;;;;;;27.30;22.10;;;;;;;14.47;97.16;99250.03;182698;1234;59570;-83
2024/03/11 16:36:12;;;;;;;32.30;23.20;;;;;;;14.32;98.39;99251.33;182813;1236;46736;-82
2024/03/11 16:40:14;;;;;;;28.00;21.20;;;;;;;14.18;98.66;99262.15;183291;1235;45947;-82
2024/03/11 16:44:17;;;;;;;34.20;21.90;;;;;;;14.04;99.02;99272.02;182629;1233;45953;-82
2024/03/11 16:48:19;;;;;;;33.40;23.90;;;;;;;13.93;99.14;99279.23;182435;1237;46152;-82
2024/03/11 16:52:22;;;;;;;35.70;24.30;;;;;;;13.84;99.60;99285.42;182083;1234;59742;-82
2024/03/11 16:56:29;;;;;;;31.10;22.70;;;;;;;13.71;100.00;99290.73;182528;1233;45935;-81
2024/03/11 17:00:33;;;;;;;33.40;23.70;;;;;;;13.54;100.00;99289.36;183839;1237;46150;-82
2024/03/11 17:04:36;;;;;;;29.80;23.80;;;;;;;13.38;100.00;99295.64;182964;1234;45011;-81
2024/03/11 17:08:38;;;;;;;35.60;24.90;;;;;;;13.21;100.00;99300.21;183168;1233;46028;-82
2024/03/11 17:12:43;;;;;;;31.00;24.60;;;;;;;13.07;100.00;99305.65;182899;1233;59986;-82
2024/03/11 17:16:45;;;;;;;38.10;25.50;;;;;;;12.93;100.00;99313.74;183345;1238;43953;-82
2024/03/11 17:20:51;;;;;;;32.60;23.40;;;;;;;12.83;100.00;99316.23;182978;1233;46075;-82
2024/03/11 17:24:58;;;;;;;41.30;27.40;;;;;;;12.76;100.00;99317.95;182892;1234;46025;-83
2024/03/11 17:29:03;;;;;;;31.90;25.40;;;;;;;12.66;100.00;99320.30;182657;1238;46149;-82
2024/03/11 17:33:08;;;;;;;29.40;23.20;;;;;;;12.58;100.00;99327.39;181458;1237;58301;-82
2024/03/11 17:37:14;;;;;;;30.70;23.90;;;;;;;12.51;100.00;99328.90;182763;1234;44042;-82
2024/03/11 17:41:16;;;;;;;35.50;27.80;;;;;;;12.42;100.00;99331.02;183393;1237;46660;-81
2024/03/11 17:45:20;;;;;;;35.00;25.40;;;;;;;12.34;100.00;99339.70;182807;1233;46005;-81
2024/03/11 17:49:22;;;;;;;38.30;28.90;;;;;;;12.25;100.00;99341.84;183259;1233;44190;-82
2024/03/11 17:53:24;;;;;;;36.00;29.20;;;;;;;12.19;100.00;99342.67;183422;1235;57909;-82
2024/03/11 17:57:26;;;;;;;57.80;38.00;;;;;;;12.13;100.00;99350.02;183149;1236;45954;-81
2024/03/11 18:01:31;;;;;;;63.10;38.80;;;;;;;12.07;100.00;99357.02;183066;1234;46018;-82
2024/03/11 18:05:34;;;;;;;51.00;34.90;;;;;;;12.03;100.00;99360.14;182331;1235;46016;-81
2024/03/11 18:09:39;;;;;;;53.00;34.80;;;;;;;12.00;100.00;99359.30;182403;1237;46018;-81
2024/03/11 18:13:41;;;;;;;47.00;32.50;;;;;;;11.99;100.00;99359.61;182100;1237;60758;-81
2024/03/11 18:17:43;;;;;;;62.30;38.60;;;;;;;11.96;100.00;99366.64;182594;1239;46084;-82